sensor_id;sensor_type;location;lat;lon;timestamp;pressure;altitude;pressure_sealevel;temperature;humidity
44734;BME280;30462;52.446;-1.930;2022-11-23T00:00:18;97744.32422;;;;
44734;BME280;30462;52.446;-1.930;2022-11-23T00:01:19;97749.36719;;;;
44734;BME280;30462;52.446;-1.930;2022-11-23T00:02:18;97749.3125;;;;
44734;BME280;30462;52.446;-1.930;2022-11-23T00:03:18;97750.23828;;;;
44734;BME280;30462;52.446;-1.930;2022-11-23T00:04:18;97752.39844;;;;
44734;BME280;30462;52.446;-1.930;2022-11-23T00:05:18;97752.53906;;;;
44734;BME280;30462;52.446;-1.930;2022-11-23T00:06:19;97751.15625;;;;
44734;BME280;30462;52.446;-1.930;2022-11-23T00:07:18;97751.58594;;;;
44734;BME280;30462;52.446;-1.930;2022-11-23T00:08:18;97746.94531;;;;
44734;BME280;30462;52.446;-1.930;2022-11-23T00:09:18;97744.83984;;;;
44734;BME280;30462;52.446;-1.930;2022-11-23T00:10:18;97750.79297;;;;
44734;BME280;30462;52.446;-1.930;2022-11-23T00:11:18;97752.44922;;;;
44734;BME280;30462;52.446;-1.930;2022-11-23T00:12:17;97748.97656;;;;
44734;BME280;30462;52.446;-1.930;2022-11-23T00:13:18;97748.14453;;;;
44734;BME280;30462;52.446;-1.930;2022-11-23T00:14:18;97746.94141;;;;
44734;BME280;30462;52.446;-1.930;2022-11-23T00:15:18;97742.59766;;;;
44734;BME280;30462;52.446;-1.930;2022-11-23T00:16:19;97744.64453;;;;
44734;BME280;30462;52.446;-1.930;2022-11-23T00:17:17;97744.97656;;;;
44734;BME280;30462;52.446;-1.930;2022-11-23T00:18:18;97744.27344;;;;
44734;BME280;30462;52.446;-1.930;2022-11-23T00:19:18;97744.48828;;;;
44734;BME280;30462;52.446;-1.930;2022-11-23T00:20:18;97748.78125;;;;
44734;BME280;30462;52.446;-1.930;2022-11-23T00:21:19;97750.05469;;;;
44734;BME280;30462;52.446;-1.930;2022-11-23T00:22:19;97748.21094;;;;
44734;BME280;30462;52.446;-1.930;2022-11-23T00:23:18;97749.96875;;;;
44734;BME280;30462;52.446;-1.930;2022-11-23T00:24:18;97746.55078;;;;
44734;BME280;30462;52.446;-1.930;2022-11-23T00:25:18;97744.17578;;;;
44734;BME280;30462;52.446;-1.930;2022-11-23T00:26:18;97741.80078;;;;
44734;BME280;30462;52.446;-1.930;2022-11-23T00:27:18;97738.54297;;;;
44734;BME280;30462;52.446;-1.930;2022-11-23T00:28:18;97740.00781;;;;
44734;BME280;30462;52.446;-1.930;2022-11-23T00:29:18;97734.54297;;;;
44734;BME280;30462;52.446;-1.930;2022-11-23T00:30:18;97734.34375;;;;
44734;BME280;30462;52.446;-1.930;2022-11-23T00:31:18;97734.76563;;;;
44734;BME280;30462;52.446;-1.930;2022-11-23T00:32:18;97735.91406;;;;
44734;BME280;30462;52.446;-1.930;2022-11-23T00:33:17;97735.11328;;;;
44734;BME280;30462;52.446;-1.930;2022-11-23T00:34:18;97732.88672;;;;
44734;BME280;30462;52.446;-1.930;2022-11-23T00:35:18;97729.75;;;;
44734;BME280;30462;52.446;-1.930;2022-11-23T00:36:18;97726.21094;;;;
44734;BME280;30462;52.446;-1.930;2022-11-23T00:37:18;97722.38281;;;;
44734;BME280;30462;52.446;-1.930;2022-11-23T00:38:18;97723.03906;;;;
44734;BME280;30462;52.446;-1.930;2022-11-23T00:39:18;97722.79688;;;;
44734;BME280;30462;52.446;-1.930;2022-11-23T00:40:18;97722.96094;;;;
44734;BME280;30462;52.446;-1.930;2022-11-23T00:41:18;97717;;;;
44734;BME280;30462;52.446;-1.930;2022-11-23T00:42:18;97718.01563;;;;
44734;BME280;30462;52.446;-1.930;2022-11-23T00:43:18;97715.76563;;;;
44734;BME280;30462;52.446;-1.930;2022-11-23T00:44:18;97713.80469;;;;
44734;BME280;30462;52.446;-1.930;2022-11-23T00:45:18;97714.5;;;;
44734;BME280;30462;52.446;-1.930;2022-11-23T00:46:19;97716.72266;;;;
44734;BME280;30462;52.446;-1.930;2022-11-23T00:47:18;97714.94141;;;;
44734;BME280;30462;52.446;-1.930;2022-11-23T00:48:18;97711.25391;;;;
44734;BME280;30462;52.446;-1.930;2022-11-23T00:49:18;97712.85156;;;;
44734;BME280;30462;52.446;-1.930;2022-11-23T00:50:18;97707.87891;;;;
44734;BME280;30462;52.446;-1.930;2022-11-23T00:51:19;97707.86719;;;;
44734;BME280;30462;52.446;-1.930;2022-11-23T00:52:17;97708.67969;;;;
44734;BME280;30462;52.446;-1.930;2022-11-23T00:53:18;97711.98047;;;;
44734;BME280;30462;52.446;-1.930;2022-11-23T00:54:18;97712.96484;;;;
44734;BME280;30462;52.446;-1.930;2022-11-23T00:55:18;97711.48828;;;;
44734;BME280;30462;52.446;-1.930;2022-11-23T00:56:18;97707.85156;;;;
44734;BME280;30462;52.446;-1.930;2022-11-23T00:57:17;97708.39453;;;;
44734;BME280;30462;52.446;-1.930;2022-11-23T00:58:18;97704.86328;;;;
44734;BME280;30462;52.446;-1.930;2022-11-23T00:59:18;97701.55469;;;;
44734;BME280;30462;52.446;-1.930;2022-11-23T01:00:18;97698.24609;;;;
44734;BME280;30462;52.446;-1.930;2022-11-23T01:01:18;97693.64453;;;;
44734;BME280;30462;52.446;-1.930;2022-11-23T01:02:18;97691.32031;;;;
44734;BME280;30462;52.446;-1.930;2022-11-23T01:03:18;97690.5625;;;;
44734;BME280;30462;52.446;-1.930;2022-11-23T01:04:17;97686.26953;;;;
44734;BME280;30462;52.446;-1.930;2022-11-23T01:05:18;97684.91016;;;;
44734;BME280;30462;52.446;-1.930;2022-11-23T01:06:19;97683.53906;;;;
44734;BME280;30462;52.446;-1.930;2022-11-23T01:07:17;97681.26563;;;;
44734;BME280;30462;52.446;-1.930;2022-11-23T01:08:18;97674.57813;;;;
44734;BME280;30462;52.446;-1.930;2022-11-23T01:09:18;97673.17969;;;;
44734;BME280;30462;52.446;-1.930;2022-11-23T01:10:18;97672.30859;;;;
44734;BME280;30462;52.446;-1.930;2022-11-23T01:11:18;97671.34766;;;;
44734;BME280;30462;52.446;-1.930;2022-11-23T01:12:18;97671.42969;;;;
44734;BME280;30462;52.446;-1.930;2022-11-23T01:13:17;97668.21484;;;;
44734;BME280;30462;52.446;-1.930;2022-11-23T01:14:18;97667.55078;;;;
44734;BME280;30462;52.446;-1.930;2022-11-23T01:15:17;97660.98047;;;;
44734;BME280;30462;52.446;-1.930;2022-11-23T01:16:19;97660.26953;;;;
44734;BME280;30462;52.446;-1.930;2022-11-23T01:17:18;97660.44141;;;;
44734;BME280;30462;52.446;-1.930;2022-11-23T01:18:18;97664.12891;;;;
44734;BME280;30462;52.446;-1.930;2022-11-23T01:19:19;97657.87891;;;;
44734;BME280;30462;52.446;-1.930;2022-11-23T01:20:18;97660.62109;;;;
44734;BME280;30462;52.446;-1.930;2022-11-23T01:21:18;97665.15234;;;;
44734;BME280;30462;52.446;-1.930;2022-11-23T01:22:18;97655.53906;;;;
44734;BME280;30462;52.446;-1.930;2022-11-23T01:23:17;97655.92188;;;;
44734;BME280;30462;52.446;-1.930;2022-11-23T01:24:19;97654.30859;;;;
44734;BME280;30462;52.446;-1.930;2022-11-23T01:25:18;97655.82031;;;;
44734;BME280;30462;52.446;-1.930;2022-11-23T01:26:18;97653.23828;;;;
44734;BME280;30462;52.446;-1.930;2022-11-23T01:27:18;97642.23438;;;;
44734;BME280;30462;52.446;-1.930;2022-11-23T01:28:17;97644.95703;;;;
44734;BME280;30462;52.446;-1.930;2022-11-23T01:29:18;97644.51563;;;;
44734;BME280;30462;52.446;-1.930;2022-11-23T01:30:18;97646.24609;;;;
44734;BME280;30462;52.446;-1.930;2022-11-23T01:31:19;97646.32813;;;;
44734;BME280;30462;52.446;-1.930;2022-11-23T01:32:18;97644.76172;;;;
44734;BME280;30462;52.446;-1.930;2022-11-23T01:33:18;97643.55078;;;;
44734;BME280;30462;52.446;-1.930;2022-11-23T01:34:18;97638.85547;;;;
44734;BME280;30462;52.446;-1.930;2022-11-23T01:35:18;97636.77344;;;;
44734;BME280;30462;52.446;-1.930;2022-11-23T01:36:18;97632.0625;;;;
44734;BME280;30462;52.446;-1.930;2022-11-23T01:37:17;97627.44141;;;;
44734;BME280;30462;52.446;-1.930;2022-11-23T01:38:18;97631.97266;;;;
44734;BME280;30462;52.446;-1.930;2022-11-23T01:39:18;97625.41797;;;;
44734;BME280;30462;52.446;-1.930;2022-11-23T01:40:18;97628.1875;;;;
44734;BME280;30462;52.446;-1.930;2022-11-23T01:41:19;97631.41406;;;;
44734;BME280;30462;52.446;-1.930;2022-11-23T01:42:18;97632.80469;;;;
44734;BME280;30462;52.446;-1.930;2022-11-23T01:43:18;97628.52734;;;;
44734;BME280;30462;52.446;-1.930;2022-11-23T01:44:21;97627.83984;;;;
44734;BME280;30462;52.446;-1.930;2022-11-23T01:46:18;97620.83203;;;;
44734;BME280;30462;52.446;-1.930;2022-11-23T01:47:18;97621.01953;;;;
44734;BME280;30462;52.446;-1.930;2022-11-23T01:48:18;97615.23438;;;;
44734;BME280;30462;52.446;-1.930;2022-11-23T01:49:17;97618.12891;;;;
44734;BME280;30462;52.446;-1.930;2022-11-23T01:50:18;97614.02734;;;;
44734;BME280;30462;52.446;-1.930;2022-11-23T01:51:19;97616.65234;;;;
44734;BME280;30462;52.446;-1.930;2022-11-23T01:52:19;97620.28906;;;;
44734;BME280;30462;52.446;-1.930;2022-11-23T01:53:18;97614.37109;;;;
44734;BME280;30462;52.446;-1.930;2022-11-23T01:54:19;97608.73047;;;;
44734;BME280;30462;52.446;-1.930;2022-11-23T01:55:18;97610.99609;;;;
44734;BME280;30462;52.446;-1.930;2022-11-23T01:56:19;97604.72656;;;;
44734;BME280;30462;52.446;-1.930;2022-11-23T01:57:20;97604.59766;;;;
44734;BME280;30462;52.446;-1.930;2022-11-23T01:58:20;97602.5;;;;
44734;BME280;30462;52.446;-1.930;2022-11-23T01:59:18;97601.36328;;;;
44734;BME280;30462;52.446;-1.930;2022-11-23T02:00:18;97599.41797;;;;
44734;BME280;30462;52.446;-1.930;2022-11-23T02:01:17;97600.65625;;;;
44734;BME280;30462;52.446;-1.930;2022-11-23T02:02:18;97598.43359;;;;
44734;BME280;30462;52.446;-1.930;2022-11-23T02:03:18;97594.40234;;;;
44734;BME280;30462;52.446;-1.930;2022-11-23T02:04:19;97590.59766;;;;
44734;BME280;30462;52.446;-1.930;2022-11-23T02:05:18;97588.04688;;;;
44734;BME280;30462;52.446;-1.930;2022-11-23T02:06:18;97588.48438;;;;
44734;BME280;30462;52.446;-1.930;2022-11-23T02:07:18;97589.24219;;;;
44734;BME280;30462;52.446;-1.930;2022-11-23T02:08:18;97585.60547;;;;
44734;BME280;30462;52.446;-1.930;2022-11-23T02:09:18;97583.10156;;;;
44734;BME280;30462;52.446;-1.930;2022-11-23T02:10:18;97582.48828;;;;
44734;BME280;30462;52.446;-1.930;2022-11-23T02:11:20;97581.05859;;;;
44734;BME280;30462;52.446;-1.930;2022-11-23T02:12:18;97578.41016;;;;
44734;BME280;30462;52.446;-1.930;2022-11-23T02:13:17;97576.36719;;;;
44734;BME280;30462;52.446;-1.930;2022-11-23T02:14:18;97573.78906;;;;
44734;BME280;30462;52.446;-1.930;2022-11-23T02:15:18;97575.10156;;;;
44734;BME280;30462;52.446;-1.930;2022-11-23T02:16:18;97576.02734;;;;
44734;BME280;30462;52.446;-1.930;2022-11-23T02:17:18;97568.53125;;;;
44734;BME280;30462;52.446;-1.930;2022-11-23T02:18:20;97566.42188;;;;
44734;BME280;30462;52.446;-1.930;2022-11-23T02:19:19;97564.72656;;;;
44734;BME280;30462;52.446;-1.930;2022-11-23T02:20:18;97565.20703;;;;
44734;BME280;30462;52.446;-1.930;2022-11-23T02:21:18;97559.72656;;;;
44734;BME280;30462;52.446;-1.930;2022-11-23T02:22:21;97555.62891;;;;
44734;BME280;30462;52.446;-1.930;2022-11-23T02:23:21;97554.24219;;;;
44734;BME280;30462;52.446;-1.930;2022-11-23T02:24:20;97554.21484;;;;
44734;BME280;30462;52.446;-1.930;2022-11-23T02:25:21;97551.40234;;;;
44734;BME280;30462;52.446;-1.930;2022-11-23T02:26:20;97550.9375;;;;
44734;BME280;30462;52.446;-1.930;2022-11-23T02:27:18;97545.84375;;;;
44734;BME280;30462;52.446;-1.930;2022-11-23T02:28:20;97548.95313;;;;
44734;BME280;30462;52.446;-1.930;2022-11-23T02:29:19;97549.21094;;;;
44734;BME280;30462;52.446;-1.930;2022-11-23T02:30:18;97547.44922;;;;
44734;BME280;30462;52.446;-1.930;2022-11-23T02:31:18;97542.76172;;;;
44734;BME280;30462;52.446;-1.930;2022-11-23T02:32:19;97546.0625;;;;
44734;BME280;30462;52.446;-1.930;2022-11-23T02:33:18;97543.41406;;;;
44734;BME280;30462;52.446;-1.930;2022-11-23T02:34:18;97543.1875;;;;
44734;BME280;30462;52.446;-1.930;2022-11-23T02:35:18;97543.45703;;;;
44734;BME280;30462;52.446;-1.930;2022-11-23T02:36:22;97545.56641;;;;
44734;BME280;30462;52.446;-1.930;2022-11-23T02:37:18;97546.42578;;;;
44734;BME280;30462;52.446;-1.930;2022-11-23T02:38:18;97549.91016;;;;
44734;BME280;30462;52.446;-1.930;2022-11-23T02:39:19;97547.38281;;;;
44734;BME280;30462;52.446;-1.930;2022-11-23T02:40:24;97548.79297;;;;
44734;BME280;30462;52.446;-1.930;2022-11-23T02:41:18;97549.39844;;;;
44734;BME280;30462;52.446;-1.930;2022-11-23T02:42:18;97549.57813;;;;
44734;BME280;30462;52.446;-1.930;2022-11-23T02:43:18;97545.03906;;;;
44734;BME280;30462;52.446;-1.930;2022-11-23T02:45:20;97548.25781;;;;
44734;BME280;30462;52.446;-1.930;2022-11-23T02:46:19;97543.73438;;;;
44734;BME280;30462;52.446;-1.930;2022-11-23T02:47:18;97543.16406;;;;
44734;BME280;30462;52.446;-1.930;2022-11-23T02:48:18;97542.78516;;;;
44734;BME280;30462;52.446;-1.930;2022-11-23T02:49:18;97538.66797;;;;
44734;BME280;30462;52.446;-1.930;2022-11-23T02:50:18;97538.92969;;;;
44734;BME280;30462;52.446;-1.930;2022-11-23T02:51:18;97539.63281;;;;
44734;BME280;30462;52.446;-1.930;2022-11-23T02:52:18;97536.71094;;;;
44734;BME280;30462;52.446;-1.930;2022-11-23T02:53:18;97536.53516;;;;
44734;BME280;30462;52.446;-1.930;2022-11-23T02:54:18;97536.32813;;;;
44734;BME280;30462;52.446;-1.930;2022-11-23T02:55:18;97532.34375;;;;
44734;BME280;30462;52.446;-1.930;2022-11-23T02:56:18;97529.25781;;;;
44734;BME280;30462;52.446;-1.930;2022-11-23T02:57:18;97531.41797;;;;
44734;BME280;30462;52.446;-1.930;2022-11-23T02:58:18;97529.84375;;;;
44734;BME280;30462;52.446;-1.930;2022-11-23T02:59:17;97529.07813;;;;
44734;BME280;30462;52.446;-1.930;2022-11-23T03:00:18;97527.95703;;;;
44734;BME280;30462;52.446;-1.930;2022-11-23T03:01:18;97524.86719;;;;
44734;BME280;30462;52.446;-1.930;2022-11-23T03:02:18;97523.37109;;;;
44734;BME280;30462;52.446;-1.930;2022-11-23T03:03:18;97521.89453;;;;
44734;BME280;30462;52.446;-1.930;2022-11-23T03:04:18;97518.01953;;;;
44734;BME280;30462;52.446;-1.930;2022-11-23T03:05:18;97515.99609;;;;
44734;BME280;30462;52.446;-1.930;2022-11-23T03:06:18;97513.48828;;;;
44734;BME280;30462;52.446;-1.930;2022-11-23T03:07:18;97511.04297;;;;
44734;BME280;30462;52.446;-1.930;2022-11-23T03:08:17;97510.375;;;;
44734;BME280;30462;52.446;-1.930;2022-11-23T03:09:18;97505.92578;;;;
44734;BME280;30462;52.446;-1.930;2022-11-23T03:10:19;97505.21094;;;;
44734;BME280;30462;52.446;-1.930;2022-11-23T03:11:18;97499.71094;;;;
44734;BME280;30462;52.446;-1.930;2022-11-23T03:12:18;97500.07031;;;;
44734;BME280;30462;52.446;-1.930;2022-11-23T03:13:18;97494.58984;;;;
44734;BME280;30462;52.446;-1.930;2022-11-23T03:14:19;97495.9375;;;;
44734;BME280;30462;52.446;-1.930;2022-11-23T03:15:18;97497.38281;;;;
44734;BME280;30462;52.446;-1.930;2022-11-23T03:16:18;97499.70703;;;;
44734;BME280;30462;52.446;-1.930;2022-11-23T03:17:18;97497.65234;;;;
44734;BME280;30462;52.446;-1.930;2022-11-23T03:18:17;97500.92578;;;;
44734;BME280;30462;52.446;-1.930;2022-11-23T03:19:18;97498.16016;;;;
44734;BME280;30462;52.446;-1.930;2022-11-23T03:20:18;97498.23828;;;;
44734;BME280;30462;52.446;-1.930;2022-11-23T03:21:18;97498.27734;;;;
44734;BME280;30462;52.446;-1.930;2022-11-23T03:22:18;97497.07422;;;;
44734;BME280;30462;52.446;-1.930;2022-11-23T03:23:18;97496.36328;;;;
44734;BME280;30462;52.446;-1.930;2022-11-23T03:24:18;97498.43359;;;;
44734;BME280;30462;52.446;-1.930;2022-11-23T03:25:18;97498.74609;;;;
44734;BME280;30462;52.446;-1.930;2022-11-23T03:26:17;97495.91797;;;;
44734;BME280;30462;52.446;-1.930;2022-11-23T03:27:18;97494.67188;;;;
44734;BME280;30462;52.446;-1.930;2022-11-23T03:28:18;97492.07422;;;;
44734;BME280;30462;52.446;-1.930;2022-11-23T03:29:18;97490.28516;;;;
44734;BME280;30462;52.446;-1.930;2022-11-23T03:30:18;97483.64453;;;;
44734;BME280;30462;52.446;-1.930;2022-11-23T03:31:18;97482.87891;;;;
44734;BME280;30462;52.446;-1.930;2022-11-23T03:32:18;97485.69141;;;;
44734;BME280;30462;52.446;-1.930;2022-11-23T03:33:18;97477.20703;;;;
44734;BME280;30462;52.446;-1.930;2022-11-23T03:34:18;97474.75;;;;
44734;BME280;30462;52.446;-1.930;2022-11-23T03:35:17;97475.625;;;;
44734;BME280;30462;52.446;-1.930;2022-11-23T03:36:18;97474.45703;;;;
44734;BME280;30462;52.446;-1.930;2022-11-23T03:37:17;97470.60156;;;;
44734;BME280;30462;52.446;-1.930;2022-11-23T03:38:18;97469.90625;;;;
44734;BME280;30462;52.446;-1.930;2022-11-23T03:39:18;97465.90234;;;;
44734;BME280;30462;52.446;-1.930;2022-11-23T03:40:18;97458.78125;;;;
44734;BME280;30462;52.446;-1.930;2022-11-23T03:41:18;97454.59375;;;;
44734;BME280;30462;52.446;-1.930;2022-11-23T03:42:18;97452.36328;;;;
44734;BME280;30462;52.446;-1.930;2022-11-23T03:43:18;97453.53516;;;;
44734;BME280;30462;52.446;-1.930;2022-11-23T03:44:17;97446.17188;;;;
44734;BME280;30462;52.446;-1.930;2022-11-23T03:45:18;97443.85938;;;;
44734;BME280;30462;52.446;-1.930;2022-11-23T03:46:17;97442.21094;;;;
44734;BME280;30462;52.446;-1.930;2022-11-23T03:47:18;97440.6875;;;;
44734;BME280;30462;52.446;-1.930;2022-11-23T03:48:18;97439.28516;;;;
44734;BME280;30462;52.446;-1.930;2022-11-23T03:49:18;97439.67969;;;;
44734;BME280;30462;52.446;-1.930;2022-11-23T03:50:18;97438.21484;;;;
44734;BME280;30462;52.446;-1.930;2022-11-23T03:51:18;97433.89844;;;;
44734;BME280;30462;52.446;-1.930;2022-11-23T03:52:18;97436.52734;;;;
44734;BME280;30462;52.446;-1.930;2022-11-23T03:53:18;97427.70703;;;;
44734;BME280;30462;52.446;-1.930;2022-11-23T03:54:18;97427.48828;;;;
44734;BME280;30462;52.446;-1.930;2022-11-23T03:55:17;97427.03906;;;;
44734;BME280;30462;52.446;-1.930;2022-11-23T03:56:18;97422.28125;;;;
44734;BME280;30462;52.446;-1.930;2022-11-23T03:57:18;97418.84766;;;;
44734;BME280;30462;52.446;-1.930;2022-11-23T03:58:18;97414.19141;;;;
44734;BME280;30462;52.446;-1.930;2022-11-23T03:59:18;97413.11328;;;;
44734;BME280;30462;52.446;-1.930;2022-11-23T04:00:18;97410.41797;;;;
44734;BME280;30462;52.446;-1.930;2022-11-23T04:01:18;97409.96484;;;;
44734;BME280;30462;52.446;-1.930;2022-11-23T04:02:18;97400.97266;;;;
44734;BME280;30462;52.446;-1.930;2022-11-23T04:03:18;97398.5;;;;
44734;BME280;30462;52.446;-1.930;2022-11-23T04:04:18;97397.71094;;;;
44734;BME280;30462;52.446;-1.930;2022-11-23T04:05:18;97400.15625;;;;
44734;BME280;30462;52.446;-1.930;2022-11-23T04:06:17;97396.21484;;;;
44734;BME280;30462;52.446;-1.930;2022-11-23T04:07:17;97393.46875;;;;
44734;BME280;30462;52.446;-1.930;2022-11-23T04:08:18;97389.94922;;;;
44734;BME280;30462;52.446;-1.930;2022-11-23T04:09:18;97390.70703;;;;
44734;BME280;30462;52.446;-1.930;2022-11-23T04:10:18;97389.69922;;;;
44734;BME280;30462;52.446;-1.930;2022-11-23T04:11:18;97388.41016;;;;
44734;BME280;30462;52.446;-1.930;2022-11-23T04:12:18;97389.16406;;;;
44734;BME280;30462;52.446;-1.930;2022-11-23T04:13:18;97393.35547;;;;
44734;BME280;30462;52.446;-1.930;2022-11-23T04:14:18;97390.32813;;;;
44734;BME280;30462;52.446;-1.930;2022-11-23T04:15:18;97391.55078;;;;
44734;BME280;30462;52.446;-1.930;2022-11-23T04:16:18;97392.96484;;;;
44734;BME280;30462;52.446;-1.930;2022-11-23T04:17:18;97393.74219;;;;
44734;BME280;30462;52.446;-1.930;2022-11-23T04:18:18;97394.84375;;;;
44734;BME280;30462;52.446;-1.930;2022-11-23T04:19:18;97390.88672;;;;
44734;BME280;30462;52.446;-1.930;2022-11-23T04:20:18;97388.54297;;;;
44734;BME280;30462;52.446;-1.930;2022-11-23T04:21:17;97384.77344;;;;
44734;BME280;30462;52.446;-1.930;2022-11-23T04:22:18;97380.33594;;;;
44734;BME280;30462;52.446;-1.930;2022-11-23T04:23:18;97382.24609;;;;
44734;BME280;30462;52.446;-1.930;2022-11-23T04:24:18;97383.56641;;;;
44734;BME280;30462;52.446;-1.930;2022-11-23T04:25:17;97378.73828;;;;
44734;BME280;30462;52.446;-1.930;2022-11-23T04:26:18;97374.74609;;;;
44734;BME280;30462;52.446;-1.930;2022-11-23T04:27:18;97368.85938;;;;
44734;BME280;30462;52.446;-1.930;2022-11-23T04:28:18;97369.90625;;;;
44734;BME280;30462;52.446;-1.930;2022-11-23T04:29:18;97371.38281;;;;
44734;BME280;30462;52.446;-1.930;2022-11-23T04:30:18;97365.61328;;;;
44734;BME280;30462;52.446;-1.930;2022-11-23T04:31:18;97362.98047;;;;
44734;BME280;30462;52.446;-1.930;2022-11-23T04:32:18;97358.65234;;;;
44734;BME280;30462;52.446;-1.930;2022-11-23T04:33:17;97357.92969;;;;
44734;BME280;30462;52.446;-1.930;2022-11-23T04:34:18;97359.30859;;;;
44734;BME280;30462;52.446;-1.930;2022-11-23T04:35:18;97347.75391;;;;
44734;BME280;30462;52.446;-1.930;2022-11-23T04:36:18;97343.59375;;;;
44734;BME280;30462;52.446;-1.930;2022-11-23T04:37:18;97339.84766;;;;
44734;BME280;30462;52.446;-1.930;2022-11-23T04:38:17;97333.84375;;;;
44734;BME280;30462;52.446;-1.930;2022-11-23T04:39:18;97324.60547;;;;
44734;BME280;30462;52.446;-1.930;2022-11-23T04:40:18;97324.87891;;;;
44734;BME280;30462;52.446;-1.930;2022-11-23T04:41:18;97325.65234;;;;
44734;BME280;30462;52.446;-1.930;2022-11-23T04:42:18;97327.96484;;;;
44734;BME280;30462;52.446;-1.930;2022-11-23T04:43:18;97324.87109;;;;
44734;BME280;30462;52.446;-1.930;2022-11-23T04:44:18;97321.42969;;;;
44734;BME280;30462;52.446;-1.930;2022-11-23T04:45:18;97325.37109;;;;
44734;BME280;30462;52.446;-1.930;2022-11-23T04:46:18;97326.58594;;;;
44734;BME280;30462;52.446;-1.930;2022-11-23T04:47:17;97323.71484;;;;
44734;BME280;30462;52.446;-1.930;2022-11-23T04:48:18;97320.46094;;;;
44734;BME280;30462;52.446;-1.930;2022-11-23T04:49:18;97321.78516;;;;
44734;BME280;30462;52.446;-1.930;2022-11-23T04:50:18;97314.81641;;;;
44734;BME280;30462;52.446;-1.930;2022-11-23T04:51:18;97316.86328;;;;
44734;BME280;30462;52.446;-1.930;2022-11-23T04:52:17;97321.92188;;;;
44734;BME280;30462;52.446;-1.930;2022-11-23T04:53:17;97320.47656;;;;
44734;BME280;30462;52.446;-1.930;2022-11-23T04:54:18;97317.83203;;;;
44734;BME280;30462;52.446;-1.930;2022-11-23T04:55:18;97313.97656;;;;
44734;BME280;30462;52.446;-1.930;2022-11-23T04:56:18;97308.82813;;;;
44734;BME280;30462;52.446;-1.930;2022-11-23T04:57:18;97300.05859;;;;
44734;BME280;30462;52.446;-1.930;2022-11-23T04:58:18;97288.88672;;;;
44734;BME280;30462;52.446;-1.930;2022-11-23T04:59:18;97288.35156;;;;
44734;BME280;30462;52.446;-1.930;2022-11-23T05:00:18;97290.51172;;;;
44734;BME280;30462;52.446;-1.930;2022-11-23T05:01:18;97289.02344;;;;
44734;BME280;30462;52.446;-1.930;2022-11-23T05:02:18;97284.63672;;;;
44734;BME280;30462;52.446;-1.930;2022-11-23T05:03:18;97279.05859;;;;
44734;BME280;30462;52.446;-1.930;2022-11-23T05:04:18;97278.96875;;;;
44734;BME280;30462;52.446;-1.930;2022-11-23T05:05:17;97280.83594;;;;
44734;BME280;30462;52.446;-1.930;2022-11-23T05:06:17;97274.07422;;;;
44734;BME280;30462;52.446;-1.930;2022-11-23T05:07:18;97270.44531;;;;
44734;BME280;30462;52.446;-1.930;2022-11-23T05:08:18;97264.33203;;;;
44734;BME280;30462;52.446;-1.930;2022-11-23T05:09:18;97260.71875;;;;
44734;BME280;30462;52.446;-1.930;2022-11-23T05:10:18;97255.98438;;;;
44734;BME280;30462;52.446;-1.930;2022-11-23T05:11:18;97256.38672;;;;
44734;BME280;30462;52.446;-1.930;2022-11-23T05:12:18;97251.73047;;;;
44734;BME280;30462;52.446;-1.930;2022-11-23T05:13:18;97249.26953;;;;
44734;BME280;30462;52.446;-1.930;2022-11-23T05:14:18;97251.85156;;;;
44734;BME280;30462;52.446;-1.930;2022-11-23T05:15:18;97251.23047;;;;
44734;BME280;30462;52.446;-1.930;2022-11-23T05:16:18;97242.17188;;;;
44734;BME280;30462;52.446;-1.930;2022-11-23T05:17:18;97245.21875;;;;
44734;BME280;30462;52.446;-1.930;2022-11-23T05:18:17;97244.99609;;;;
44734;BME280;30462;52.446;-1.930;2022-11-23T05:19:17;97243.38672;;;;
44734;BME280;30462;52.446;-1.930;2022-11-23T05:20:18;97241.09375;;;;
44734;BME280;30462;52.446;-1.930;2022-11-23T05:21:18;97239.08203;;;;
44734;BME280;30462;52.446;-1.930;2022-11-23T05:22:18;97234.40625;;;;
44734;BME280;30462;52.446;-1.930;2022-11-23T05:23:18;97230.93359;;;;
44734;BME280;30462;52.446;-1.930;2022-11-23T05:24:18;97230.56641;;;;
44734;BME280;30462;52.446;-1.930;2022-11-23T05:25:18;97233.44922;;;;
44734;BME280;30462;52.446;-1.930;2022-11-23T05:26:18;97231.27344;;;;
44734;BME280;30462;52.446;-1.930;2022-11-23T05:27:18;97229.25781;;;;
44734;BME280;30462;52.446;-1.930;2022-11-23T05:28:20;97226.39063;;;;
44734;BME280;30462;52.446;-1.930;2022-11-23T05:29:18;97222.36719;;;;
44734;BME280;30462;52.446;-1.930;2022-11-23T05:30:18;97215.76172;;;;
44734;BME280;30462;52.446;-1.930;2022-11-23T05:31:18;97213.40234;;;;
44734;BME280;30462;52.446;-1.930;2022-11-23T05:32:18;97214.79297;;;;
44734;BME280;30462;52.446;-1.930;2022-11-23T05:33:17;97207.96094;;;;
44734;BME280;30462;52.446;-1.930;2022-11-23T05:34:17;97209.51953;;;;
44734;BME280;30462;52.446;-1.930;2022-11-23T05:35:18;97207.91016;;;;
44734;BME280;30462;52.446;-1.930;2022-11-23T05:36:18;97206.66797;;;;
44734;BME280;30462;52.446;-1.930;2022-11-23T05:37:18;97205.51953;;;;
44734;BME280;30462;52.446;-1.930;2022-11-23T05:38:18;97206.71875;;;;
44734;BME280;30462;52.446;-1.930;2022-11-23T05:39:18;97202.54297;;;;
44734;BME280;30462;52.446;-1.930;2022-11-23T05:40:18;97196.64453;;;;
44734;BME280;30462;52.446;-1.930;2022-11-23T05:41:18;97196.58984;;;;
44734;BME280;30462;52.446;-1.930;2022-11-23T05:42:18;97193.55078;;;;
44734;BME280;30462;52.446;-1.930;2022-11-23T05:43:18;97194.0625;;;;
44734;BME280;30462;52.446;-1.930;2022-11-23T05:44:18;97192.33203;;;;
44734;BME280;30462;52.446;-1.930;2022-11-23T05:45:18;97194.08594;;;;
44734;BME280;30462;52.446;-1.930;2022-11-23T05:46:17;97184.80859;;;;
44734;BME280;30462;52.446;-1.930;2022-11-23T05:47:17;97183.94141;;;;